Time;durP1;ratioP1;P1;durP2;ratioP2;P2;SDS_P1;SDS_P2;PMS_P1;PMS_P2;Temp;Humidity;BMP_temperature;BMP_pressure;BME280_temperature;BME280_humidity;BME280_pressure;Samples;Min_cycle;Max_cycle;Signal;HPM_P1;HPM_P2
2023/03/02 00:02:00;;;;;;;19.50;14.88;;;3.70;89.00;;;;;;5097604;28;20039;-76
2023/03/02 00:04:43;;;;;;;20.45;15.68;;;3.70;88.90;;;;;;5080635;28;20046;-76
2023/03/02 00:07:13;;;;;;;23.17;16.65;;;3.70;88.80;;;;;;5080233;28;20040;-76
2023/03/02 00:09:38;;;;;;;20.65;15.88;;;3.70;88.80;;;;;;5080311;28;20031;-76
2023/03/02 00:12:06;;;;;;;23.65;16.35;;;3.70;88.80;;;;;;5080587;28;20363;-76
2023/03/02 00:14:31;;;;;;;22.02;15.75;;;3.70;88.80;;;;;;5097032;28;20127;-76
2023/03/02 00:16:57;;;;;;;23.35;18.20;;;3.60;88.90;;;;;;5097199;28;20126;-76
2023/03/02 00:19:23;;;;;;;27.00;17.60;;;3.60;88.80;;;;;;5096974;28;20493;-75
2023/03/02 00:21:48;;;;;;;28.23;19.75;;;3.60;88.90;;;;;;5097298;28;20039;-75
2023/03/02 00:24:14;;;;;;;23.38;17.92;;;3.60;88.90;;;;;;5080178;28;20479;-76
2023/03/02 00:26:40;;;;;;;31.88;21.40;;;3.60;89.20;;;;;;5096837;28;20040;-76
2023/03/02 00:29:06;;;;;;;32.85;23.05;;;3.60;88.80;;;;;;5096757;28;20039;-76
2023/03/02 00:31:32;;;;;;;37.95;25.83;;;3.60;89.10;;;;;;5096726;28;20038;-76
2023/03/02 00:33:58;;;;;;;36.30;25.00;;;3.60;89.40;;;;;;5096585;28;20039;-75
2023/03/02 00:36:24;;;;;;;37.22;24.60;;;3.60;89.40;;;;;;5096314;28;20120;-76
2023/03/02 00:38:51;;;;;;;40.70;25.23;;;3.60;89.10;;;;;;5096434;28;20589;-76
2023/03/02 00:41:17;;;;;;;37.83;25.20;;;3.60;89.10;;;;;;5079666;28;20126;-75
2023/03/02 00:43:43;;;;;;;34.10;22.30;;;3.60;89.40;;;;;;5096519;28;20043;-76
2023/03/02 00:46:10;;;;;;;37.80;25.58;;;3.60;89.50;;;;;;5096284;28;20551;-75
2023/03/02 00:48:36;;;;;;;34.60;24.88;;;3.60;89.40;;;;;;5096360;28;20042;-76
2023/03/02 00:51:02;;;;;;;34.55;23.70;;;3.60;89.10;;;;;;5079699;28;20031;-76
2023/03/02 00:53:28;;;;;;;36.47;24.63;;;3.60;89.10;;;;;;5096174;28;20094;-76
2023/03/02 00:55:54;;;;;;;38.30;25.63;;;3.60;89.40;;;;;;5079892;28;20043;-76
2023/03/02 00:58:22;;;;;;;35.78;24.88;;;3.70;89.50;;;;;;5078765;28;20396;-76
2023/03/02 01:00:48;;;;;;;35.35;24.70;;;3.60;89.40;;;;;;5081097;28;20392;-75
2023/03/02 01:03:14;;;;;;;37.25;24.20;;;3.70;89.20;;;;;;5082974;28;20043;-75
2023/03/02 01:05:40;;;;;;;32.60;22.70;;;3.70;89.50;;;;;;5116714;28;20148;-75
2023/03/02 01:08:05;;;;;;;39.78;25.70;;;3.70;89.60;;;;;;5100273;28;20131;-77
2023/03/02 01:10:32;;;;;;;31.25;21.83;;;3.70;89.40;;;;;;5098020;28;20433;-76
2023/03/02 01:12:58;;;;;;;28.67;21.38;;;3.70;89.40;;;;;;5096249;28;20360;-76
2023/03/02 01:15:24;;;;;;;23.85;17.50;;;3.70;89.30;;;;;;5096199;28;20046;-75
2023/03/02 01:17:50;;;;;;;24.20;17.75;;;3.70;89.10;;;;;;5095773;28;20046;-75
2023/03/02 01:20:16;;;;;;;27.60;19.35;;;3.70;89.10;;;;;;5078896;28;20039;-74
2023/03/02 01:22:43;;;;;;;26.77;19.55;;;3.60;89.10;;;;;;5095896;28;20491;-74
2023/03/02 01:25:10;;;;;;;31.65;20.80;;;3.60;89.10;;;;;;5095961;28;20126;-76
2023/03/02 01:27:36;;;;;;;33.65;20.63;;;3.60;89.10;;;;;;5095579;28;20081;-76
2023/03/02 01:30:02;;;;;;;29.92;19.95;;;3.60;89.30;;;;;;5095881;28;20176;-76
2023/03/02 01:32:28;;;;;;;31.88;21.05;;;3.60;89.20;;;;;;5095537;28;20039;-74
2023/03/02 01:34:53;;;;;;;25.95;20.52;;;3.50;89.30;;;;;;5095744;28;20043;-75
2023/03/02 01:37:19;;;;;;;22.58;17.73;;;3.50;89.30;;;;;;5095539;28;20487;-75
2023/03/02 01:39:46;;;;;;;24.92;15.68;;;3.40;89.30;;;;;;5078798;28;20134;-74
2023/03/02 01:42:11;;;;;;;19.92;15.48;;;3.40;89.30;;;;;;5095532;28;20039;-75
2023/03/02 01:44:42;;;;;;;22.30;16.08;;;3.40;89.50;;;;;;5095607;28;20135;-75
2023/03/02 01:47:12;;;;;;;23.25;17.00;;;3.40;89.40;;;;;;5095644;28;20071;-75
2023/03/02 01:49:43;;;;;;;23.65;16.35;;;3.30;89.30;;;;;;5095681;28;20444;-75
2023/03/02 01:52:11;;;;;;;24.60;16.13;;;3.30;89.30;;;;;;5095444;28;20484;-75
2023/03/02 01:54:39;;;;;;;22.70;16.63;;;3.10;89.20;;;;;;5095297;28;20048;-75
2023/03/02 01:57:06;;;;;;;22.05;16.35;;;3.10;89.10;;;;;;5095441;28;20073;-75
2023/03/02 01:59:35;;;;;;;27.15;17.05;;;3.00;89.20;;;;;;5095582;28;20051;-75
2023/03/02 02:02:05;;;;;;;26.50;17.90;;;3.00;89.30;;;;;;5095298;28;20043;-75
2023/03/02 02:04:33;;;;;;;29.55;18.88;;;2.90;89.30;;;;;;5095671;28;20040;-75
2023/03/02 02:07:02;;;;;;;32.97;22.38;;;2.90;89.30;;;;;;5095517;28;20049;-75
2023/03/02 02:09:32;;;;;;;36.97;23.58;;;2.90;89.30;;;;;;5095530;28;20475;-75
2023/03/02 02:11:58;;;;;;;38.63;24.90;;;2.80;89.40;;;;;;5099873;28;20388;-75
2023/03/02 02:14:24;;;;;;;35.47;24.42;;;2.90;89.80;;;;;;5099363;28;20033;-76
2023/03/02 02:16:50;;;;;;;42.55;26.80;;;2.90;90.00;;;;;;5099351;28;20040;-75
2023/03/02 02:19:39;;;;;;;35.53;24.00;;;2.90;90.00;;;;;;5099334;28;20035;-75
2023/03/02 02:22:05;;;;;;;36.70;24.50;;;2.90;89.70;;;;;;5099483;28;20040;-74
2023/03/02 02:24:43;;;;;;;32.55;21.52;;;2.80;90.00;;;;;;5099184;28;20384;-75
2023/03/02 02:27:10;;;;;;;31.88;20.75;;;2.90;89.90;;;;;;5099186;28;20387;-75
2023/03/02 02:29:46;;;;;;;28.02;19.05;;;2.90;90.00;;;;;;5099166;28;20039;-74
2023/03/02 02:32:23;;;;;;;30.90;21.20;;;2.80;90.00;;;;;;5082455;28;20040;-76
2023/03/02 02:35:17;;;;;;;26.33;18.40;;;2.80;90.20;;;;;;5099117;28;20035;-75
2023/03/02 02:37:58;;;;;;;34.70;21.98;;;2.90;90.00;;;;;;5099003;28;20051;-74
2023/03/02 02:40:48;;;;;;;30.13;20.85;;;2.80;90.30;;;;;;5098876;28;20040;-75
2023/03/02 02:43:18;;;;;;;33.25;22.98;;;2.80;90.10;;;;;;5099040;28;20043;-75
2023/03/02 02:45:45;;;;;;;32.63;21.98;;;2.80;90.20;;;;;;5098871;28;20039;-75
2023/03/02 02:48:17;;;;;;;32.15;21.75;;;2.80;90.20;;;;;;5098734;28;20084;-75
2023/03/02 02:50:43;;;;;;;29.10;20.95;;;2.80;89.90;;;;;;5098845;28;20036;-74
2023/03/02 02:53:14;;;;;;;27.40;20.27;;;2.80;89.90;;;;;;5098659;28;20490;-74
2023/03/02 02:55:41;;;;;;;27.60;19.38;;;2.80;90.00;;;;;;5098459;28;20048;-75
2023/03/02 02:58:31;;;;;;;30.85;19.38;;;2.80;90.20;;;;;;5098597;28;20099;-75
2023/03/02 03:00:58;;;;;;;26.67;20.02;;;2.80;90.10;;;;;;5098543;28;20046;-75
2023/03/02 03:03:30;;;;;;;28.35;19.80;;;2.80;90.30;;;;;;5098383;28;20039;-75
2023/03/02 03:05:58;;;;;;;27.42;19.90;;;2.80;90.20;;;;;;5098420;28;20479;-75
2023/03/02 03:08:42;;;;;;;28.15;20.00;;;2.80;90.30;;;;;;5098309;28;20050;-75
2023/03/02 03:11:09;;;;;;;29.67;20.33;;;2.80;90.30;;;;;;5081357;28;20039;-74
2023/03/02 03:13:37;;;;;;;33.80;20.52;;;2.80;90.40;;;;;;5098177;28;20047;-75
2023/03/02 03:16:05;;;;;;;34.42;21.42;;;2.80;90.60;;;;;;5098218;28;20176;-75
2023/03/02 03:18:30;;;;;;;39.88;23.73;;;2.80;90.30;;;;;;5098338;28;20606;-75
2023/03/02 03:20:56;;;;;;;34.67;21.13;;;2.80;90.20;;;;;;5098079;28;20043;-74
2023/03/02 03:23:23;;;;;;;37.10;22.08;;;2.80;89.90;;;;;;5080579;28;20044;-74
2023/03/02 03:25:49;;;;;;;36.88;23.33;;;2.80;90.30;;;;;;5098001;28;20498;-75
2023/03/02 03:28:15;;;;;;;39.97;23.25;;;2.80;90.60;;;;;;5081042;28;20065;-75
2023/03/02 03:30:40;;;;;;;38.25;22.10;;;2.80;90.70;;;;;;5097909;28;20223;-75
2023/03/02 03:33:09;;;;;;;39.75;22.30;;;2.80;90.40;;;;;;5097918;28;20035;-75
2023/03/02 03:35:36;;;;;;;39.47;23.10;;;2.80;90.40;;;;;;5098069;28;20361;-75
2023/03/02 03:38:04;;;;;;;34.08;20.67;;;2.80;90.50;;;;;;5097803;28;20123;-75
2023/03/02 03:40:33;;;;;;;33.72;21.58;;;2.80;90.60;;;;;;5097915;28;20039;-75
2023/03/02 03:42:59;;;;;;;38.17;21.83;;;2.80;90.70;;;;;;5097633;28;20048;-75
2023/03/02 03:45:26;;;;;;;38.22;22.25;;;2.80;90.40;;;;;;5097644;28;20044;-75
2023/03/02 03:47:51;;;;;;;37.63;21.63;;;2.80;90.70;;;;;;5097477;28;20035;-75
2023/03/02 03:50:17;;;;;;;42.83;23.58;;;2.80;90.60;;;;;;5097819;28;20092;-75
2023/03/02 03:52:43;;;;;;;41.33;22.58;;;2.70;90.80;;;;;;5080494;28;20479;-75
2023/03/02 03:55:10;;;;;;;46.42;25.35;;;2.70;90.60;;;;;;5080298;28;20063;-75
2023/03/02 03:57:35;;;;;;;43.17;24.10;;;2.70;90.60;;;;;;5097473;28;20050;-75
2023/03/02 04:00:05;;;;;;;50.30;26.02;;;2.70;90.40;;;;;;5097571;28;20391;-75
2023/03/02 04:02:30;;;;;;;43.75;23.83;;;2.70;90.30;;;;;;5097417;28;20039;-75
2023/03/02 04:05:05;;;;;;;49.42;26.25;;;2.70;90.50;;;;;;5097342;28;20043;-75
2023/03/02 04:07:31;;;;;;;49.30;26.23;;;2.60;90.80;;;;;;5080496;28;20113;-74
2023/03/02 04:10:02;;;;;;;53.10;27.63;;;2.60;91.10;;;;;;5097051;28;20502;-75
2023/03/02 04:12:38;;;;;;;55.60;28.80;;;2.60;91.30;;;;;;5097340;28;20104;-75
2023/03/02 04:15:06;;;;;;;57.13;29.20;;;2.60;90.90;;;;;;5097381;28;20364;-75
2023/03/02 04:17:32;;;;;;;54.80;29.52;;;2.60;91.40;;;;;;5096969;28;20123;-75
2023/03/02 04:19:58;;;;;;;59.30;29.63;;;2.60;91.60;;;;;;5097075;28;20126;-74
2023/03/02 04:22:25;;;;;;;52.15;28.45;;;2.60;91.60;;;;;;5097158;28;20563;-75
2023/03/02 04:24:51;;;;;;;54.15;30.27;;;2.60;91.40;;;;;;5096928;28;20418;-74
2023/03/02 04:27:18;;;;;;;54.72;29.02;;;2.60;91.60;;;;;;5079935;28;20130;-75
2023/03/02 04:29:43;;;;;;;67.88;31.83;;;2.60;91.50;;;;;;5097092;28;20462;-75
2023/03/02 04:32:10;;;;;;;57.40;30.00;;;2.60;91.50;;;;;;5096865;28;20074;-75
2023/03/02 04:34:36;;;;;;;54.03;28.98;;;2.50;91.50;;;;;;5078978;28;20479;-75
2023/03/02 04:37:02;;;;;;;55.13;29.88;;;2.50;91.20;;;;;;5096577;28;20043;-75
2023/03/02 04:39:28;;;;;;;50.75;27.25;;;2.50;91.60;;;;;;5079821;28;20037;-76
2023/03/02 04:41:54;;;;;;;49.03;28.65;;;2.50;91.50;;;;;;5096452;28;20122;-75
2023/03/02 04:44:20;;;;;;;47.97;27.05;;;2.40;91.60;;;;;;5096750;28;20051;-75
2023/03/02 04:46:47;;;;;;;43.97;24.73;;;2.40;91.30;;;;;;5079573;28;20096;-75
2023/03/02 04:49:15;;;;;;;47.70;27.33;;;2.50;91.30;;;;;;5079735;28;20357;-75
2023/03/02 04:51:43;;;;;;;39.40;24.17;;;2.40;91.50;;;;;;5096309;28;20039;-75
2023/03/02 04:54:24;;;;;;;44.85;25.77;;;2.40;91.40;;;;;;5096124;28;20100;-75
2023/03/02 04:56:50;;;;;;;37.90;23.52;;;2.40;91.60;;;;;;5096440;28;20044;-75
2023/03/02 04:59:19;;;;;;;40.22;24.08;;;2.40;91.70;;;;;;5096522;28;20044;-74
2023/03/02 05:01:45;;;;;;;41.47;23.27;;;2.40;91.30;;;;;;5096154;28;20046;-75
2023/03/02 05:04:12;;;;;;;34.63;21.90;;;2.40;91.50;;;;;;5079460;28;20391;-75
2023/03/02 05:06:38;;;;;;;43.72;23.70;;;2.40;91.60;;;;;;5096487;28;20105;-75
2023/03/02 05:09:04;;;;;;;38.60;22.20;;;2.40;91.70;;;;;;5096170;28;20047;-75
2023/03/02 05:11:30;;;;;;;36.70;21.52;;;2.30;91.70;;;;;;5079386;28;20088;-75
2023/03/02 05:14:02;;;;;;;38.00;22.23;;;2.30;91.90;;;;;;5096191;28;20036;-75
2023/03/02 05:16:31;;;;;;;41.28;22.35;;;2.30;91.60;;;;;;5096239;28;20406;-75
2023/03/02 05:18:58;;;;;;;35.65;22.17;;;2.30;91.60;;;;;;5096040;28;20046;-74
2023/03/02 05:21:24;;;;;;;48.30;22.77;;;2.30;91.50;;;;;;5095818;28;20043;-75
2023/03/02 05:23:50;;;;;;;44.50;22.85;;;2.30;91.50;;;;;;5095836;28;20043;-74
2023/03/02 05:26:17;;;;;;;36.75;21.65;;;2.20;91.50;;;;;;5095886;28;20087;-75
2023/03/02 05:28:43;;;;;;;36.75;21.50;;;2.20;91.60;;;;;;5095607;28;20100;-76
2023/03/02 05:31:17;;;;;;;51.22;23.98;;;2.20;91.90;;;;;;5079253;28;20043;-75
2023/03/02 05:33:43;;;;;;;44.63;25.33;;;2.20;92.00;;;;;;5095773;28;20043;-74
2023/03/02 05:36:09;;;;;;;47.10;26.02;;;2.20;92.30;;;;;;5096109;28;20087;-75
2023/03/02 05:38:35;;;;;;;42.90;23.83;;;2.20;92.50;;;;;;5079117;28;20476;-75
2023/03/02 05:41:01;;;;;;;41.58;24.48;;;2.20;92.50;;;;;;5095548;28;20047;-75
2023/03/02 05:43:27;;;;;;;43.75;23.90;;;2.20;92.40;;;;;;5095527;28;20085;-74
2023/03/02 05:45:59;;;;;;;48.75;27.35;;;2.20;92.50;;;;;;5095398;28;20047;-75
2023/03/02 05:48:28;;;;;;;42.78;25.52;;;2.20;92.60;;;;;;5078760;28;20043;-74
2023/03/02 05:50:54;;;;;;;47.88;25.85;;;2.30;92.70;;;;;;5093751;28;20047;-76
2023/03/02 05:53:20;;;;;;;51.38;25.55;;;2.30;92.60;;;;;;5095587;28;20511;-76
2023/03/02 05:55:46;;;;;;;46.75;25.65;;;2.30;92.80;;;;;;5095206;28;20064;-76
2023/03/02 05:58:14;;;;;;;49.78;27.23;;;2.30;92.90;;;;;;5095474;28;20047;-75
2023/03/02 06:00:40;;;;;;;48.88;27.45;;;2.30;92.80;;;;;;5095703;28;20469;-76
2023/03/02 06:03:06;;;;;;;41.72;25.17;;;2.40;92.90;;;;;;5095466;28;20043;-74
2023/03/02 06:05:32;;;;;;;50.90;28.15;;;2.40;92.70;;;;;;5095368;28;20452;-74
2023/03/02 06:07:58;;;;;;;50.40;27.20;;;2.40;92.00;;;;;;5095430;28;20047;-75
2023/03/02 06:10:24;;;;;;;49.05;27.45;;;2.40;92.20;;;;;;5095275;28;20499;-74
2023/03/02 06:12:50;;;;;;;46.25;26.67;;;2.40;92.20;;;;;;5078218;28;20039;-75
2023/03/02 06:15:16;;;;;;;49.70;26.33;;;2.40;92.00;;;;;;5095132;28;20036;-75
2023/03/02 06:17:42;;;;;;;53.83;27.83;;;2.40;92.20;;;;;;5095586;28;20062;-75
2023/03/02 06:20:09;;;;;;;58.22;29.48;;;2.40;92.70;;;;;;5096126;28;20062;-75
2023/03/02 06:22:45;;;;;;;63.28;31.65;;;2.40;92.80;;;;;;5079084;28;20380;-76
2023/03/02 06:25:17;;;;;;;63.63;31.80;;;2.40;92.70;;;;;;5095722;28;20395;-75
2023/03/02 06:27:43;;;;;;;67.20;32.90;;;2.40;92.60;;;;;;5077940;28;20470;-75
2023/03/02 06:30:13;;;;;;;59.13;31.35;;;2.40;92.50;;;;;;5077697;28;20067;-75
2023/03/02 06:32:39;;;;;;;57.15;29.00;;;2.50;92.70;;;;;;5094898;28;20062;-76
2023/03/02 06:35:06;;;;;;;68.72;31.65;;;2.50;92.60;;;;;;5077598;28;20032;-75
2023/03/02 06:37:31;;;;;;;61.75;30.52;;;2.50;92.50;;;;;;5094926;28;20039;-75
2023/03/02 06:39:57;;;;;;;64.93;31.15;;;2.50;92.60;;;;;;5094990;28;20475;-75
2023/03/02 06:42:25;;;;;;;68.45;32.70;;;2.50;92.40;;;;;;5097070;28;20039;-77
2023/03/02 06:44:51;;;;;;;61.97;30.95;;;2.50;92.50;;;;;;5115293;28;20212;-77
2023/03/02 06:47:17;;;;;;;68.68;32.50;;;2.50;92.60;;;;;;5098569;28;20046;-74
2023/03/02 06:49:43;;;;;;;66.97;32.65;;;2.50;92.60;;;;;;5098384;28;20458;-74
2023/03/02 06:52:09;;;;;;;78.07;34.97;;;2.50;92.40;;;;;;5098291;28;20067;-75
2023/03/02 06:54:36;;;;;;;71.50;33.65;;;2.50;92.50;;;;;;5115343;28;20387;-73
2023/03/02 06:57:02;;;;;;;69.25;32.90;;;2.50;92.30;;;;;;5116309;27;20043;-74
2023/03/02 06:59:28;;;;;;;73.18;34.55;;;2.60;92.40;;;;;;5118960;27;20071;-74
2023/03/02 07:01:54;;;;;;;73.82;34.40;;;2.50;92.20;;;;;;5101850;27;20081;-74
2023/03/02 07:04:19;;;;;;;83.18;34.05;;;2.50;92.50;;;;;;5119262;27;20084;-76
2023/03/02 07:06:46;;;;;;;71.72;33.42;;;2.60;92.20;;;;;;5101822;27;20032;-75
2023/03/02 07:09:12;;;;;;;76.03;33.50;;;2.60;92.20;;;;;;5118689;27;20211;-74
2023/03/02 07:11:38;;;;;;;75.95;33.97;;;2.60;92.50;;;;;;5118510;27;20061;-75
2023/03/02 07:14:04;;;;;;;77.82;33.15;;;2.60;92.50;;;;;;5119160;27;20031;-74
2023/03/02 07:16:32;;;;;;;87.70;36.45;;;2.60;92.50;;;;;;5101949;27;20387;-76
2023/03/02 07:18:59;;;;;;;65.15;31.42;;;2.60;92.40;;;;;;5118617;27;20043;-75
2023/03/02 07:21:25;;;;;;;82.78;36.72;;;2.60;92.50;;;;;;5101382;27;20051;-75
2023/03/02 07:23:50;;;;;;;82.28;35.92;;;2.60;92.70;;;;;;5118836;27;20152;-73
2023/03/02 07:26:16;;;;;;;81.32;33.72;;;2.60;92.80;;;;;;5101529;27;20403;-76
2023/03/02 07:28:43;;;;;;;77.57;35.38;;;2.60;92.60;;;;;;5101400;27;20252;-76
2023/03/02 07:31:10;;;;;;;76.85;35.90;;;2.70;92.60;;;;;;5101476;27;20039;-76
2023/03/02 07:33:37;;;;;;;78.75;36.55;;;2.70;92.70;;;;;;5118299;27;20068;-75
2023/03/02 07:36:04;;;;;;;68.88;33.17;;;2.80;92.60;;;;;;5118229;27;20544;-74
2023/03/02 07:38:30;;;;;;;72.45;32.83;;;2.80;92.70;;;;;;5118540;27;20122;-76
2023/03/02 07:40:56;;;;;;;83.35;37.05;;;2.80;92.70;;;;;;5118328;27;20460;-75
2023/03/02 07:43:24;;;;;;;73.10;32.97;;;2.80;92.80;;;;;;5101439;27;20451;-75
2023/03/02 07:45:50;;;;;;;84.32;35.00;;;2.80;92.70;;;;;;5085065;27;20106;-76
2023/03/02 07:48:16;;;;;;;77.85;35.47;;;2.80;92.80;;;;;;5118003;27;20041;-75
2023/03/02 07:50:41;;;;;;;79.35;35.67;;;2.90;92.80;;;;;;5118332;27;20038;-76
2023/03/02 07:53:07;;;;;;;77.38;34.15;;;3.00;92.80;;;;;;5118219;27;20555;-76
2023/03/02 07:55:33;;;;;;;83.75;36.20;;;2.90;92.70;;;;;;5118037;27;20051;-76
2023/03/02 07:57:59;;;;;;;80.68;34.95;;;3.00;92.50;;;;;;5117822;27;20039;-76
2023/03/02 08:00:24;;;;;;;76.65;36.00;;;3.00;92.40;;;;;;5117793;27;20122;-77
2023/03/02 08:02:50;;;;;;;97.90;39.65;;;3.00;92.50;;;;;;5117782;27;20452;-75
2023/03/02 08:05:16;;;;;;;75.07;35.55;;;3.00;92.10;;;;;;5117877;27;20042;-76
2023/03/02 08:07:42;;;;;;;79.00;35.40;;;3.00;92.30;;;;;;5117319;27;20046;-74
2023/03/02 08:10:09;;;;;;;71.55;32.35;;;3.00;92.30;;;;;;5100569;27;20039;-75
2023/03/02 08:12:35;;;;;;;74.20;33.40;;;3.00;92.40;;;;;;5100412;27;20046;-74
2023/03/02 08:15:01;;;;;;;75.68;33.95;;;3.10;92.40;;;;;;5117446;27;20035;-75
2023/03/02 08:17:26;;;;;;;78.38;35.58;;;3.10;92.30;;;;;;5117694;27;20043;-76
2023/03/02 08:19:52;;;;;;;81.30;36.97;;;3.10;92.40;;;;;;5117520;27;20046;-76
2023/03/02 08:22:18;;;;;;;65.95;31.23;;;3.10;92.40;;;;;;5100343;27;20396;-76
2023/03/02 08:24:43;;;;;;;78.93;35.40;;;3.10;92.20;;;;;;5083549;27;20121;-76
2023/03/02 08:27:14;;;;;;;66.72;31.65;;;3.10;92.30;;;;;;5117155;27;20035;-75
2023/03/02 08:29:40;;;;;;;64.25;29.77;;;3.10;92.20;;;;;;5100219;27;20498;-75
2023/03/02 08:32:05;;;;;;;67.25;31.25;;;3.10;92.10;;;;;;5100142;27;20039;-75
2023/03/02 08:34:31;;;;;;;60.25;29.10;;;3.10;92.20;;;;;;5083567;27;20031;-75
2023/03/02 08:36:57;;;;;;;69.40;31.17;;;3.10;92.20;;;;;;5100107;27;20540;-75
2023/03/02 08:39:23;;;;;;;60.60;28.80;;;3.10;92.10;;;;;;5083160;27;20114;-75
2023/03/02 08:41:50;;;;;;;63.00;29.40;;;3.10;92.10;;;;;;5100339;27;20038;-75
2023/03/02 08:44:16;;;;;;;69.57;33.08;;;3.10;92.20;;;;;;5100159;27;20452;-77
2023/03/02 08:46:42;;;;;;;60.05;29.13;;;3.10;92.20;;;;;;5099998;27;20050;-77
2023/03/02 08:49:08;;;;;;;59.92;28.13;;;3.10;92.20;;;;;;5116813;27;20035;-76
2023/03/02 08:51:34;;;;;;;59.55;28.25;;;3.20;92.30;;;;;;5116907;27;20493;-76
2023/03/02 08:54:00;;;;;;;63.85;30.40;;;3.20;92.30;;;;;;5116679;27;20486;-76
2023/03/02 08:56:29;;;;;;;66.32;30.67;;;3.20;92.30;;;;;;5113004;28;20046;-75
2023/03/02 08:58:58;;;;;;;63.05;29.88;;;3.30;92.20;;;;;;5096364;28;20492;-75
2023/03/02 09:01:28;;;;;;;66.10;29.80;;;3.30;92.30;;;;;;5096228;28;20050;-77
2023/03/02 09:03:54;;;;;;;70.20;31.63;;;3.40;92.20;;;;;;5096249;28;20036;-75
2023/03/02 09:06:20;;;;;;;59.05;29.15;;;3.40;92.20;;;;;;5096397;28;20038;-77
2023/03/02 09:08:46;;;;;;;55.92;27.90;;;3.50;92.30;;;;;;5096073;28;20036;-75
2023/03/02 09:11:12;;;;;;;58.17;28.38;;;3.50;92.20;;;;;;5113024;28;20445;-76
2023/03/02 09:13:38;;;;;;;56.53;29.60;;;3.60;92.30;;;;;;5096095;28;20395;-77
2023/03/02 09:16:05;;;;;;;61.22;32.42;;;3.60;92.30;;;;;;5096055;28;20082;-76
2023/03/02 09:18:31;;;;;;;62.15;30.02;;;3.60;92.20;;;;;;5113297;28;20119;-76
2023/03/02 09:20:57;;;;;;;60.97;30.45;;;3.60;92.10;;;;;;5095570;28;20043;-76
2023/03/02 09:23:24;;;;;;;59.95;30.27;;;3.60;92.20;;;;;;5112865;28;20048;-75
2023/03/02 09:25:51;;;;;;;62.40;29.75;;;3.70;92.20;;;;;;5113061;28;20044;-76
2023/03/02 09:28:17;;;;;;;59.85;29.90;;;3.70;92.00;;;;;;5112676;28;20492;-76
2023/03/02 09:30:51;;;;;;;64.90;31.63;;;3.80;91.90;;;;;;5096031;28;20043;-77
2023/03/02 09:33:18;;;;;;;59.65;27.70;;;3.80;91.90;;;;;;5113071;28;20036;-75
2023/03/02 09:35:44;;;;;;;55.60;28.55;;;3.90;92.00;;;;;;5095975;28;20048;-75
2023/03/02 09:38:15;;;;;;;56.75;28.20;;;3.90;92.00;;;;;;5078959;28;20081;-77
2023/03/02 09:41:06;;;;;;;50.88;25.60;;;4.00;91.80;;;;;;5112539;28;20048;-80
2023/03/02 09:43:43;;;;;;;50.88;25.05;;;4.10;91.70;;;;;;5095579;28;20061;-78
2023/03/02 09:46:25;;;;;;;58.15;28.52;;;4.10;91.60;;;;;;5089007;28;20034;-78
2023/03/02 09:49:12;;;;;;;53.40;24.52;;;4.20;91.60;;;;;;5076390;28;20078;-78
2023/03/02 09:52:06;;;;;;;53.97;27.38;;;4.30;91.50;;;;;;5081187;28;20039;-77
2023/03/02 09:54:33;;;;;;;50.40;24.83;;;4.40;91.40;;;;;;5095111;28;20126;-77
2023/03/02 09:57:00;;;;;;;46.63;23.10;;;4.40;91.00;;;;;;5094115;28;20060;-77
2023/03/02 09:59:31;;;;;;;48.83;25.42;;;4.40;90.80;;;;;;5093640;28;20098;-77
2023/03/02 10:02:12;;;;;;;50.72;25.15;;;4.30;90.70;;;;;;5095514;28;20943;-77
2023/03/02 10:04:52;;;;;;;44.42;24.50;;;4.30;90.80;;;;;;5096994;28;20617;-77
2023/03/02 10:07:34;;;;;;;52.35;27.60;;;4.30;90.70;;;;;;5098494;28;20499;-77
2023/03/02 10:10:25;;;;;;;54.65;27.10;;;4.30;90.60;;;;;;5097717;28;20616;-77
2023/03/02 10:13:21;;;;;;;56.65;27.38;;;4.30;90.50;;;;;;5079608;28;20036;-77
2023/03/02 10:16:06;;;;;;;52.92;25.73;;;4.40;90.60;;;;;;5078752;28;20040;-77
2023/03/02 10:18:38;;;;;;;49.58;27.92;;;4.60;90.80;;;;;;5096358;28;20047;-77
2023/03/02 10:21:30;;;;;;;54.60;27.75;;;5.00;90.80;;;;;;5080680;28;20402;-77
2023/03/02 10:24:34;;;;;;;52.33;25.75;;;5.20;90.50;;;;;;5083820;28;20109;-77
2023/03/02 10:27:37;;;;;;;50.88;26.83;;;5.50;90.10;;;;;;5075875;28;20075;-76
2023/03/02 10:30:09;;;;;;;44.88;23.25;;;5.80;89.80;;;;;;5079548;28;20688;-77
2023/03/02 10:32:42;;;;;;;47.97;24.88;;;6.20;89.40;;;;;;5096445;28;20063;-77
2023/03/02 10:35:21;;;;;;;43.17;23.55;;;6.30;88.60;;;;;;5100777;28;20040;-77
2023/03/02 10:37:50;;;;;;;43.42;24.08;;;6.60;88.60;;;;;;5095458;28;20097;-77
2023/03/02 10:40:39;;;;;;;45.70;24.98;;;6.70;88.10;;;;;;5098302;28;20135;-77
2023/03/02 10:43:13;;;;;;;47.42;24.55;;;6.80;87.40;;;;;;5081059;28;20059;-76
2023/03/02 10:45:38;;;;;;;45.92;24.40;;;7.00;87.30;;;;;;5100470;28;20186;-77
2023/03/02 10:48:08;;;;;;;46.88;25.00;;;7.10;87.00;;;;;;5097174;28;20122;-77
2023/03/02 10:50:34;;;;;;;47.55;24.85;;;7.40;86.60;;;;;;5083586;28;20101;-77
2023/03/02 10:53:00;;;;;;;44.92;24.95;;;7.40;85.40;;;;;;5101695;28;20048;-76
2023/03/02 10:55:26;;;;;;;44.88;25.73;;;7.50;85.00;;;;;;5100009;28;20052;-76
2023/03/02 10:58:15;;;;;;;45.17;25.55;;;7.60;84.80;;;;;;5082383;28;20055;-76
2023/03/02 11:00:41;;;;;;;43.45;23.75;;;7.80;85.00;;;;;;5100327;28;20578;-77
2023/03/02 11:03:21;;;;;;;39.75;22.38;;;8.00;84.80;;;;;;5084412;28;20062;-77
2023/03/02 11:05:46;;;;;;;43.72;23.25;;;8.10;84.30;;;;;;5084092;28;20503;-76
2023/03/02 11:08:21;;;;;;;44.13;25.05;;;8.20;84.20;;;;;;5063162;28;20043;-76
2023/03/02 11:10:54;;;;;;;37.55;22.92;;;8.30;83.00;;;;;;5097803;28;20047;-76
2023/03/02 11:13:25;;;;;;;40.67;23.75;;;8.40;83.50;;;;;;5083584;28;20039;-76
2023/03/02 11:15:53;;;;;;;36.53;21.67;;;8.50;83.30;;;;;;5096919;28;20047;-77
2023/03/02 11:18:41;;;;;;;40.17;22.42;;;8.60;82.60;;;;;;5098359;28;20039;-76
2023/03/02 11:21:13;;;;;;;42.88;23.42;;;8.80;82.80;;;;;;5081592;28;20122;-76
2023/03/02 11:23:55;;;;;;;39.30;22.23;;;8.90;82.00;;;;;;5102000;28;20044;-75
2023/03/02 11:26:34;;;;;;;36.90;18.90;;;9.00;82.00;;;;;;5098931;28;20111;-76
2023/03/02 11:29:18;;;;;;;32.20;20.00;;;9.10;81.20;;;;;;5094555;28;20044;-73
2023/03/02 11:31:54;;;;;;;40.60;21.58;;;9.10;79.90;;;;;;5094433;28;20127;-72
2023/03/02 11:34:50;;;;;;;31.33;18.27;;;9.30;80.40;;;;;;5077498;28;20032;-73
2023/03/02 11:37:18;;;;;;;33.65;19.58;;;9.40;80.00;;;;;;5094376;28;20050;-74
2023/03/02 11:39:47;;;;;;;31.75;17.10;;;9.50;79.30;;;;;;5094264;28;20044;-73
2023/03/02 11:42:23;;;;;;;32.70;18.83;;;9.60;78.80;;;;;;5093836;28;20048;-74
2023/03/02 11:44:49;;;;;;;34.88;18.88;;;9.80;78.40;;;;;;5094431;28;20109;-74
2023/03/02 11:47:16;;;;;;;34.35;18.40;;;9.80;77.20;;;;;;5094071;28;20044;-74
2023/03/02 11:50:04;;;;;;;33.13;18.88;;;10.00;77.60;;;;;;5060646;28;20040;-74
2023/03/02 11:52:36;;;;;;;30.83;17.75;;;10.10;76.70;;;;;;5077228;28;20127;-75
2023/03/02 11:55:16;;;;;;;38.90;21.23;;;10.10;75.70;;;;;;5100679;27;20346;-74
2023/03/02 11:57:47;;;;;;;33.70;18.70;;;10.20;75.90;;;;;;5117844;27;20043;-75
2023/03/02 12:00:40;;;;;;;32.72;19.88;;;10.30;75.40;;;;;;5117723;27;20047;-73
2023/03/02 12:03:19;;;;;;;32.83;18.17;;;10.30;74.70;;;;;;5117729;27;20046;-73
2023/03/02 12:05:59;;;;;;;32.60;18.35;;;10.40;74.70;;;;;;5117554;27;20491;-75
2023/03/02 12:08:44;;;;;;;29.67;17.73;;;10.50;73.90;;;;;;5117450;27;20035;-74
2023/03/02 12:11:16;;;;;;;30.63;17.05;;;10.60;73.40;;;;;;5100656;27;20383;-73
2023/03/02 12:13:44;;;;;;;27.00;16.13;;;10.70;72.20;;;;;;5117390;27;20082;-74
2023/03/02 12:16:20;;;;;;;28.20;16.15;;;10.80;73.10;;;;;;5117217;27;20039;-75
2023/03/02 12:18:47;;;;;;;30.08;17.55;;;11.00;73.00;;;;;;5117536;27;20097;-75
2023/03/02 12:21:19;;;;;;;28.60;17.08;;;11.20;73.30;;;;;;5117488;27;20039;-75
2023/03/02 12:23:48;;;;;;;29.70;17.65;;;11.30;72.50;;;;;;5100498;27;20437;-75
2023/03/02 12:26:20;;;;;;;27.35;16.15;;;11.20;72.00;;;;;;5117317;27;20082;-75
2023/03/02 12:29:10;;;;;;;28.15;16.08;;;11.30;71.60;;;;;;5117121;27;20142;-74
2023/03/02 12:31:42;;;;;;;29.10;16.30;;;11.20;70.20;;;;;;5117121;27;20043;-76
2023/03/02 12:34:22;;;;;;;28.25;15.57;;;11.20;71.00;;;;;;5117226;27;20487;-75
2023/03/02 12:36:59;;;;;;;26.88;15.70;;;11.10;69.20;;;;;;5100084;27;20042;-74
2023/03/02 12:40:02;;;;;;;25.92;14.85;;;10.90;69.10;;;;;;5116923;27;20062;-74
2023/03/02 12:42:40;;;;;;;25.00;14.55;;;10.80;70.30;;;;;;5117138;27;20043;-74
2023/03/02 12:45:48;;;;;;;19.92;11.77;;;10.90;70.80;;;;;;5099801;27;20042;-74
2023/03/02 12:48:30;;;;;;;20.85;12.55;;;11.00;70.00;;;;;;5116488;27;20032;-74
2023/03/02 12:51:02;;;;;;;21.15;13.15;;;10.90;68.90;;;;;;5099718;27;20486;-74